Terminal Aerodrome Forecast
Issued by NWS

Home | Current Version | Previous Version | Text Only | Print | Product List | Glossary On
Versions: 1 2 3 4 5 6 7 8 9 10 11 12 13 14 15
018
FTUS41 KPBZ 271135
TAFDUJ
TAF
KDUJ 271135Z 2712/2812 22005KT P6SM FEW003
     FM271600 23009G16KT P6SM SKC
     FM272300 22005KT P6SM SKC=

USA.gov is the U.S. government's official web portal to all federal, state and local government web resources and services.